Time;durP1;ratioP1;P1;durP2;ratioP2;P2;SDS_P1;SDS_P2;PMS_P1;PMS_P2;Temp;Humidity;BMP_temperature;BMP_pressure;BME280_temperature;BME280_humidity;BME280_pressure;Samples;Min_cycle;Max_cycle;Signal;HPM_P1;HPM_P2
2021/11/28 00:00:18;;;;;;;12.00;5.32;;;;;;;;;;4981834;28;20053;-54
2021/11/28 00:02:45;;;;;;;11.40;4.68;;;;;;;;;;5002602;28;20049;-53
2021/11/28 00:05:12;;;;;;;10.02;4.43;;;;;;;;;;4990701;28;20038;-50
2021/11/28 00:08:03;;;;;;;9.15;4.40;;;;;;;;;;4987212;28;20074;-48
2021/11/28 00:10:46;;;;;;;8.63;4.10;;;;;;;;;;4984031;28;20054;-51
2021/11/28 00:13:23;;;;;;;11.85;5.35;;;;;;;;;;5016299;28;20053;-51
2021/11/28 00:15:50;;;;;;;12.30;5.07;;;;;;;;;;5006696;28;20082;-54
2021/11/28 00:18:17;;;;;;;10.40;4.60;;;;;;;;;;5001297;28;20124;-50
2021/11/28 00:20:43;;;;;;;12.45;5.15;;;;;;;;;;5013718;28;20104;-52
2021/11/28 00:23:10;;;;;;;11.90;4.53;;;;;;;;;;5025576;28;20045;-52
2021/11/28 00:25:37;;;;;;;11.00;4.65;;;;;;;;;;5003491;28;20042;-56
2021/11/28 00:28:05;;;;;;;10.73;4.83;;;;;;;;;;5006544;28;20046;-55
2021/11/28 00:30:31;;;;;;;12.38;5.03;;;;;;;;;;5012066;28;20026;-54
2021/11/28 00:33:00;;;;;;;12.48;5.80;;;;;;;;;;5006964;28;20043;-55
2021/11/28 00:35:26;;;;;;;11.57;5.38;;;;;;;;;;5013797;28;20034;-54
2021/11/28 00:37:53;;;;;;;12.45;5.15;;;;;;;;;;5003944;28;20038;-53
2021/11/28 00:40:19;;;;;;;10.32;4.90;;;;;;;;;;4985440;28;20049;-56
2021/11/28 00:42:47;;;;;;;17.42;5.75;;;;;;;;;;5004414;28;20045;-53
2021/11/28 00:45:14;;;;;;;13.07;5.13;;;;;;;;;;5002381;28;20052;-54
2021/11/28 00:47:40;;;;;;;11.52;4.82;;;;;;;;;;5023311;28;20134;-54
2021/11/28 00:50:24;;;;;;;13.43;4.95;;;;;;;;;;5041378;28;20041;-52
2021/11/28 00:52:51;;;;;;;12.73;5.45;;;;;;;;;;5021065;28;20070;-57
2021/11/28 00:55:17;;;;;;;16.10;5.65;;;;;;;;;;4996513;28;20034;-54
2021/11/28 00:57:44;;;;;;;14.38;5.10;;;;;;;;;;5002381;28;20049;-54
2021/11/28 01:00:13;;;;;;;13.65;4.75;;;;;;;;;;5003283;28;20061;-56
2021/11/28 01:02:39;;;;;;;14.63;5.78;;;;;;;;;;5033061;28;20056;-57
2021/11/28 01:05:07;;;;;;;16.38;6.13;;;;;;;;;;5023978;28;20048;-54
2021/11/28 01:07:38;;;;;;;14.43;5.43;;;;;;;;;;4993918;28;20042;-56
2021/11/28 01:10:04;;;;;;;16.83;6.30;;;;;;;;;;4982245;28;20050;-57
2021/11/28 01:12:31;;;;;;;15.55;6.25;;;;;;;;;;4992730;28;20081;-57
2021/11/28 01:14:57;;;;;;;15.25;5.85;;;;;;;;;;5003619;28;20037;-54
2021/11/28 01:17:26;;;;;;;15.98;6.18;;;;;;;;;;4996372;28;20169;-56
2021/11/28 01:19:52;;;;;;;;;;;;;;;;;;5003870;28;20049;-56
2021/11/28 01:22:19;;;;;;;14.48;5.10;;;;;;;;;;5007981;28;19922;-54
2021/11/28 01:24:46;;;;;;;9.57;4.07;;;;;;;;;;5002077;28;20062;-54
2021/11/28 01:27:16;;;;;;;11.60;5.07;;;;;;;;;;4983211;28;20049;-55
2021/11/28 01:29:42;;;;;;;16.70;5.50;;;;;;;;;;4985265;28;20038;-55
2021/11/28 01:32:09;;;;;;;12.60;4.90;;;;;;;;;;4983384;28;20071;-54
2021/11/28 01:34:37;;;;;;;15.13;6.88;;;;;;;;;;5022717;28;20033;-53
2021/11/28 01:37:10;;;;;;;12.03;5.23;;;;;;;;;;4990537;28;20042;-52
2021/11/28 01:39:36;;;;;;;8.55;4.10;;;;;;;;;;5001204;28;20286;-54
2021/11/28 01:42:03;;;;;;;13.35;5.35;;;;;;;;;;5004203;28;20217;-55
2021/11/28 01:44:30;;;;;;;11.73;5.00;;;;;;;;;;4997324;28;20046;-57
2021/11/28 01:46:56;;;;;;;13.98;5.80;;;;;;;;;;5003446;28;20050;-53
2021/11/28 01:49:23;;;;;;;10.35;5.30;;;;;;;;;;5009467;28;20038;-53
2021/11/28 01:51:52;;;;;;;13.38;5.20;;;;;;;;;;5025032;28;20037;-54
2021/11/28 01:54:19;;;;;;;15.32;6.50;;;;;;;;;;5004691;28;20030;-53
2021/11/28 01:56:48;;;;;;;13.70;5.13;;;;;;;;;;5002137;28;20049;-56
2021/11/28 01:59:15;;;;;;;13.82;6.13;;;;;;;;;;5004855;28;20056;-53
2021/11/28 02:01:42;;;;;;;14.63;6.22;;;;;;;;;;5007509;28;20056;-51
2021/11/28 02:04:09;;;;;;;11.50;5.30;;;;;;;;;;4997262;28;20124;-56
2021/11/28 02:06:37;;;;;;;13.82;5.13;;;;;;;;;;4999745;28;20128;-53
2021/11/28 02:09:06;;;;;;;8.23;3.90;;;;;;;;;;5005614;28;20103;-54
2021/11/28 02:11:33;;;;;;;10.38;4.45;;;;;;;;;;5022519;28;20049;-56
2021/11/28 02:14:00;;;;;;;15.15;6.07;;;;;;;;;;4998987;28;20057;-56
2021/11/28 02:16:26;;;;;;;12.05;5.38;;;;;;;;;;4985800;28;20055;-55
2021/11/28 02:18:53;;;;;;;13.48;5.55;;;;;;;;;;4998173;28;20049;-55
2021/11/28 02:21:21;;;;;;;9.93;4.35;;;;;;;;;;5015946;28;20057;-53
2021/11/28 02:23:47;;;;;;;8.97;4.07;;;;;;;;;;5001144;28;20022;-54
2021/11/28 02:26:15;;;;;;;12.57;5.00;;;;;;;;;;5000101;28;20048;-56
2021/11/28 02:28:44;;;;;;;16.20;6.20;;;;;;;;;;5003701;28;20060;-54
2021/11/28 02:31:11;;;;;;;11.88;5.15;;;;;;;;;;4995916;28;20104;-57
2021/11/28 02:33:38;;;;;;;19.08;6.15;;;;;;;;;;5004228;28;20115;-57
2021/11/28 02:36:04;;;;;;;16.75;6.65;;;;;;;;;;4988389;28;20116;-57
2021/11/28 02:38:33;;;;;;;14.48;5.72;;;;;;;;;;5002227;28;20105;-54
2021/11/28 02:41:00;;;;;;;11.10;5.45;;;;;;;;;;4999476;28;20127;-56
2021/11/28 02:43:29;;;;;;;16.08;6.40;;;;;;;;;;5018577;28;20033;-56
2021/11/28 02:45:55;;;;;;;;;;;;;;;;;;5009854;28;20041;-55
2021/11/28 02:48:22;;;;;;;14.45;5.75;;;;;;;;;;4998323;28;19922;-53
2021/11/28 02:50:49;;;;;;;15.27;6.35;;;;;;;;;;5005869;28;20049;-50
2021/11/28 02:53:16;;;;;;;11.38;4.93;;;;;;;;;;5024340;28;20066;-53
2021/11/28 02:55:45;;;;;;;16.13;6.75;;;;;;;;;;5017363;28;20049;-53
2021/11/28 02:58:13;;;;;;;15.45;6.07;;;;;;;;;;5023331;28;20104;-54
2021/11/28 03:03:25;;;;;;;14.43;5.53;;;;;;;;;;5055568;22;20040;-54
2021/11/28 03:05:51;;;;;;;11.23;4.55;;;;;;;;;;5035711;28;20099;-52
2021/11/28 03:08:18;;;;;;;11.27;4.72;;;;;;;;;;5018148;28;20054;-55
2021/11/28 03:10:47;;;;;;;12.85;4.82;;;;;;;;;;5040127;28;20036;-55
2021/11/28 03:13:13;;;;;;;;;;;;;;;;;;5026491;28;20411;-53
2021/11/28 03:15:40;;;;;;;14.35;5.45;;;;;;;;;;5037597;28;19924;-56
2021/11/28 03:18:11;;;;;;;15.13;6.25;;;;;;;;;;5031223;28;20056;-54
2021/11/28 03:20:38;;;;;;;9.45;4.40;;;;;;;;;;5041288;28;20056;-56
2021/11/28 03:23:04;;;;;;;9.25;4.25;;;;;;;;;;5040165;28;20040;-53
2021/11/28 03:25:32;;;;;;;16.60;4.80;;;;;;;;;;5035917;28;20150;-53
2021/11/28 03:28:01;;;;;;;9.32;4.65;;;;;;;;;;5048381;28;20041;-49
2021/11/28 03:30:28;;;;;;;11.07;4.85;;;;;;;;;;5034660;28;20049;-52
2021/11/28 03:32:54;;;;;;;10.93;4.45;;;;;;;;;;5041768;28;20227;-54
2021/11/28 03:35:20;;;;;;;12.77;5.47;;;;;;;;;;5027546;28;20460;-55
2021/11/28 03:37:47;;;;;;;16.88;6.53;;;;;;;;;;5024779;28;20092;-56
2021/11/28 03:40:14;;;;;;;16.65;6.65;;;;;;;;;;5040285;28;20057;-54
2021/11/28 03:42:41;;;;;;;11.15;4.85;;;;;;;;;;5040891;28;20053;-53
2021/11/28 03:45:10;;;;;;;12.80;5.45;;;;;;;;;;5041299;28;20037;-56
2021/11/28 03:47:37;;;;;;;16.17;6.32;;;;;;;;;;5035466;28;20049;-54
2021/11/28 03:50:04;;;;;;;13.50;5.93;;;;;;;;;;5042575;28;20048;-56
2021/11/28 03:52:31;;;;;;;18.33;6.82;;;;;;;;;;5035754;28;20089;-56
2021/11/28 03:54:58;;;;;;;19.33;6.40;;;;;;;;;;5042421;28;20045;-56
2021/11/28 03:57:24;;;;;;;17.02;6.78;;;;;;;;;;5037190;28;20072;-57
2021/11/28 03:59:51;;;;;;;18.75;6.97;;;;;;;;;;5040684;28;20044;-57
2021/11/28 04:02:20;;;;;;;18.00;6.80;;;;;;;;;;5040375;28;20045;-55
2021/11/28 04:04:46;;;;;;;18.10;7.05;;;;;;;;;;5019821;28;20049;-56
2021/11/28 04:07:13;;;;;;;13.73;6.63;;;;;;;;;;5022572;28;20139;-57
2021/11/28 04:09:40;;;;;;;17.08;6.53;;;;;;;;;;5032103;28;20033;-56
2021/11/28 04:12:07;;;;;;;13.82;6.03;;;;;;;;;;5036446;28;20033;-57
2021/11/28 04:14:35;;;;;;;15.07;5.97;;;;;;;;;;5026352;28;20037;-55
2021/11/28 04:17:02;;;;;;;18.67;6.63;;;;;;;;;;5042023;28;20045;-57
2021/11/28 04:19:30;;;;;;;20.48;7.25;;;;;;;;;;5037199;28;20101;-57
2021/11/28 04:21:56;;;;;;;13.37;6.30;;;;;;;;;;5023679;28;20065;-57
2021/11/28 04:24:23;;;;;;;14.82;6.57;;;;;;;;;;5021912;28;20052;-52
2021/11/28 04:26:50;;;;;;;14.20;6.40;;;;;;;;;;5043546;28;20037;-51
2021/11/28 04:29:17;;;;;;;18.20;6.28;;;;;;;;;;5039585;28;20041;-56
2021/11/28 04:31:46;;;;;;;19.02;7.30;;;;;;;;;;5019473;28;20052;-55
2021/11/28 04:34:12;;;;;;;16.15;7.05;;;;;;;;;;5031275;28;20033;-55
2021/11/28 04:36:40;;;;;;;14.82;5.90;;;;;;;;;;5039915;28;20025;-53
2021/11/28 04:39:07;;;;;;;21.57;8.73;;;;;;;;;;5041372;28;20057;-55
2021/11/28 04:41:33;;;;;;;19.52;8.32;;;;;;;;;;5038412;28;20279;-56
2021/11/28 04:44:00;;;;;;;23.65;9.15;;;;;;;;;;5043036;28;20056;-55
2021/11/28 04:46:26;;;;;;;17.02;7.35;;;;;;;;;;5036978;28;20480;-57
2021/11/28 04:48:53;;;;;;;11.88;5.32;;;;;;;;;;5041535;28;20041;-54
2021/11/28 04:51:19;;;;;;;19.75;7.05;;;;;;;;;;5028951;28;20141;-51
2021/11/28 04:53:48;;;;;;;16.23;7.00;;;;;;;;;;5020601;28;20546;-57
2021/11/28 04:56:14;;;;;;;19.15;7.88;;;;;;;;;;5017938;28;20053;-57
2021/11/28 04:58:41;;;;;;;20.80;7.80;;;;;;;;;;5022195;28;20424;-55
2021/11/28 05:01:07;;;;;;;19.50;7.13;;;;;;;;;;5021643;28;20131;-57
2021/11/28 05:03:34;;;;;;;14.75;6.22;;;;;;;;;;5041525;28;20466;-56
2021/11/28 05:06:00;;;;;;;16.85;7.03;;;;;;;;;;5036459;28;20411;-55
2021/11/28 05:08:27;;;;;;;17.83;7.88;;;;;;;;;;5041066;28;20486;-57
2021/11/28 05:10:55;;;;;;;14.27;6.13;;;;;;;;;;5042665;28;20049;-55
2021/11/28 05:13:21;;;;;;;27.13;8.00;;;;;;;;;;5032828;28;20037;-56
2021/11/28 05:15:48;;;;;;;14.93;5.90;;;;;;;;;;5042250;28;20367;-57
2021/11/28 05:18:15;;;;;;;16.23;5.68;;;;;;;;;;5021536;28;20072;-57
2021/11/28 05:20:41;;;;;;;17.45;6.80;;;;;;;;;;5021528;28;20126;-55
2021/11/28 05:23:07;;;;;;;21.00;7.22;;;;;;;;;;5030601;28;20056;-56
2021/11/28 05:25:36;;;;;;;16.85;7.18;;;;;;;;;;5039915;28;20053;-58
2021/11/28 05:28:06;;;;;;;14.27;6.72;;;;;;;;;;5026653;28;20050;-56
2021/11/28 05:30:33;;;;;;;17.67;6.95;;;;;;;;;;5019879;28;20482;-57
2021/11/28 05:32:59;;;;;;;13.60;5.60;;;;;;;;;;5018023;28;20345;-56
2021/11/28 05:35:26;;;;;;;15.93;6.95;;;;;;;;;;5021120;28;20120;-57
2021/11/28 05:37:53;;;;;;;17.35;7.40;;;;;;;;;;5018968;28;20061;-55
2021/11/28 05:40:19;;;;;;;13.82;5.90;;;;;;;;;;5021417;28;20038;-58
2021/11/28 05:42:48;;;;;;;18.02;7.68;;;;;;;;;;5019873;28;20071;-58
2021/11/28 05:45:16;;;;;;;19.23;7.95;;;;;;;;;;5023906;28;20037;-53
2021/11/28 05:47:43;;;;;;;20.00;6.97;;;;;;;;;;5020164;28;20498;-56
2021/11/28 05:50:10;;;;;;;19.52;7.88;;;;;;;;;;5041124;28;20029;-55
2021/11/28 05:52:37;;;;;;;19.77;7.53;;;;;;;;;;5040876;28;20152;-52
2021/11/28 05:55:04;;;;;;;19.48;7.68;;;;;;;;;;5018233;28;20042;-51
2021/11/28 05:57:31;;;;;;;18.50;7.88;;;;;;;;;;5021186;28;20135;-53
2021/11/28 05:59:58;;;;;;;18.63;7.63;;;;;;;;;;5032542;28;20041;-57
2021/11/28 06:02:26;;;;;;;22.02;8.00;;;;;;;;;;5039552;28;20134;-55
2021/11/28 06:04:52;;;;;;;20.10;7.95;;;;;;;;;;5018714;28;20123;-54
2021/11/28 06:07:19;;;;;;;18.52;7.22;;;;;;;;;;5019578;28;20056;-56
2021/11/28 06:09:45;;;;;;;22.70;8.23;;;;;;;;;;5034495;28;20518;-53
2021/11/28 06:12:12;;;;;;;20.83;7.88;;;;;;;;;;5054072;28;20099;-55
2021/11/28 06:14:38;;;;;;;18.90;7.38;;;;;;;;;;5037160;28;20045;-54
2021/11/28 06:17:06;;;;;;;18.42;7.60;;;;;;;;;;5038726;28;20048;-54
2021/11/28 06:19:34;;;;;;;18.58;7.47;;;;;;;;;;5034614;28;20065;-55
2021/11/28 06:22:01;;;;;;;24.27;8.38;;;;;;;;;;5038356;28;20049;-55
2021/11/28 06:24:27;;;;;;;18.48;7.35;;;;;;;;;;5038044;28;20562;-56
2021/11/28 06:26:55;;;;;;;28.77;8.93;;;;;;;;;;5041464;28;20045;-57
2021/11/28 06:29:21;;;;;;;23.40;8.27;;;;;;;;;;5038504;28;20537;-54
2021/11/28 06:31:48;;;;;;;18.45;7.47;;;;;;;;;;5059390;28;20044;-55
2021/11/28 06:34:14;;;;;;;18.58;7.43;;;;;;;;;;5035515;28;20064;-54
2021/11/28 06:36:43;;;;;;;22.58;8.75;;;;;;;;;;5019140;28;20044;-52
2021/11/28 06:39:09;;;;;;;16.00;6.57;;;;;;;;;;5020082;28;20123;-54
2021/11/28 06:41:36;;;;;;;18.52;7.15;;;;;;;;;;5016643;28;20487;-57
2021/11/28 06:44:03;;;;;;;29.88;11.05;;;;;;;;;;5020065;28;20059;-53
2021/11/28 06:46:29;;;;;;;26.00;9.68;;;;;;;;;;5033421;28;20565;-57
2021/11/28 06:48:56;;;;;;;29.65;10.32;;;;;;;;;;5040079;28;20045;-56
2021/11/28 06:51:22;;;;;;;22.80;8.90;;;;;;;;;;5036204;28;20119;-56
2021/11/28 06:53:50;;;;;;;27.92;10.07;;;;;;;;;;5038631;28;20041;-56
2021/11/28 06:56:16;;;;;;;26.03;10.27;;;;;;;;;;5035319;28;20037;-57
2021/11/28 06:58:43;;;;;;;32.63;10.43;;;;;;;;;;5040602;28;20052;-56
2021/11/28 07:01:09;;;;;;;24.45;8.57;;;;;;;;;;5030014;28;20174;-57
2021/11/28 07:03:36;;;;;;;25.30;9.15;;;;;;;;;;5023060;28;20030;-57
2021/11/28 07:06:03;;;;;;;27.08;9.63;;;;;;;;;;5019380;28;20487;-53
2021/11/28 07:08:29;;;;;;;18.55;6.72;;;;;;;;;;5019483;28;20033;-56
2021/11/28 07:10:58;;;;;;;18.45;6.72;;;;;;;;;;5019741;28;20033;-55
2021/11/28 07:13:25;;;;;;;;;;;;;;;;;;5032902;28;20424;-52
2021/11/28 07:15:51;;;;;;;18.48;6.00;;;;;;;;;;5017717;28;19925;-53
2021/11/28 07:18:18;;;;;;;19.30;7.10;;;;;;;;;;5017790;28;20239;-53
2021/11/28 07:20:45;;;;;;;14.07;6.28;;;;;;;;;;5019008;28;20072;-49
2021/11/28 07:23:11;;;;;;;16.73;6.38;;;;;;;;;;5017279;28;20049;-55
2021/11/28 07:25:38;;;;;;;15.98;5.60;;;;;;;;;;5019437;28;20038;-55
2021/11/28 07:28:06;;;;;;;19.52;7.20;;;;;;;;;;5029060;28;20049;-54
2021/11/28 07:30:32;;;;;;;19.45;6.47;;;;;;;;;;5038124;28;20050;-53
2021/11/28 07:32:59;;;;;;;17.60;6.03;;;;;;;;;;5034043;28;20061;-54
2021/11/28 07:35:26;;;;;;;24.85;9.15;;;;;;;;;;5039199;28;20065;-56
2021/11/28 07:37:54;;;;;;;19.75;8.05;;;;;;;;;;5034446;28;20407;-56
2021/11/28 07:40:21;;;;;;;22.58;7.18;;;;;;;;;;5037261;28;20056;-51
2021/11/28 07:42:47;;;;;;;20.40;7.72;;;;;;;;;;5027483;28;20487;-55
2021/11/28 07:45:15;;;;;;;25.40;9.68;;;;;;;;;;5018963;28;20081;-55
2021/11/28 07:47:42;;;;;;;25.17;8.77;;;;;;;;;;5016848;28;20049;-54
2021/11/28 07:50:09;;;;;;;22.83;8.90;;;;;;;;;;5019239;28;20049;-56
2021/11/28 07:52:36;;;;;;;20.60;7.40;;;;;;;;;;5016914;28;20059;-51
2021/11/28 07:55:03;;;;;;;21.73;7.65;;;;;;;;;;5040499;28;20037;-53
2021/11/28 07:57:29;;;;;;;15.82;6.07;;;;;;;;;;5036864;28;20050;-56
2021/11/28 07:59:55;;;;;;;22.02;8.63;;;;;;;;;;5017648;28;20120;-55
2021/11/28 08:02:23;;;;;;;29.10;8.82;;;;;;;;;;5018809;28;20057;-57
2021/11/28 08:04:50;;;;;;;22.63;7.47;;;;;;;;;;5033136;28;20527;-54
2021/11/28 08:07:17;;;;;;;22.95;7.60;;;;;;;;;;5042407;28;20187;-52
2021/11/28 08:09:44;;;;;;;18.35;7.18;;;;;;;;;;5023451;28;20084;-55
2021/11/28 08:12:10;;;;;;;24.27;8.50;;;;;;;;;;5022585;28;20514;-56
2021/11/28 08:14:38;;;;;;;19.05;7.10;;;;;;;;;;5019109;28;20048;-56
2021/11/28 08:17:04;;;;;;;24.90;8.10;;;;;;;;;;5021108;28;20126;-58
2021/11/28 08:19:33;;;;;;;21.52;7.72;;;;;;;;;;5019512;28;20029;-57
2021/11/28 08:21:59;;;;;;;18.33;6.88;;;;;;;;;;5022632;28;20042;-55
2021/11/28 08:24:26;;;;;;;19.25;7.45;;;;;;;;;;5021995;28;20044;-56
2021/11/28 08:26:53;;;;;;;20.42;7.80;;;;;;;;;;5024328;28;20081;-56
2021/11/28 08:29:19;;;;;;;25.35;8.43;;;;;;;;;;5021860;28;20041;-49
2021/11/28 08:31:46;;;;;;;18.70;7.20;;;;;;;;;;5043224;28;20049;-53
2021/11/28 08:34:13;;;;;;;17.70;6.38;;;;;;;;;;5028936;28;21804;-54
2021/11/28 08:36:41;;;;;;;19.58;7.47;;;;;;;;;;5038990;28;20088;-53
2021/11/28 08:39:08;;;;;;;20.05;8.13;;;;;;;;;;5032816;28;20045;-56
2021/11/28 08:41:34;;;;;;;20.77;8.13;;;;;;;;;;5029100;28;20061;-54
2021/11/28 08:44:01;;;;;;;19.35;7.47;;;;;;;;;;5034074;28;20073;-50
2021/11/28 08:46:28;;;;;;;17.83;6.50;;;;;;;;;;5029513;28;20049;-53
2021/11/28 08:48:54;;;;;;;19.23;7.25;;;;;;;;;;5032446;28;20045;-56
2021/11/28 08:51:21;;;;;;;25.10;8.45;;;;;;;;;;5032664;28;20189;-53
2021/11/28 08:53:49;;;;;;;17.65;7.13;;;;;;;;;;5031218;28;20037;-52
2021/11/28 08:56:16;;;;;;;21.37;7.97;;;;;;;;;;5028923;28;20048;-53
2021/11/28 08:58:43;;;;;;;17.00;6.45;;;;;;;;;;5034943;28;20045;-54
2021/11/28 09:01:09;;;;;;;17.63;7.03;;;;;;;;;;5033362;28;20163;-55
2021/11/28 09:03:36;;;;;;;23.55;8.68;;;;;;;;;;5031181;28;20053;-56
2021/11/28 09:06:02;;;;;;;18.42;7.55;;;;;;;;;;5025826;28;20069;-54
2021/11/28 09:08:29;;;;;;;19.92;7.70;;;;;;;;;;5030838;28;20048;-57
2021/11/28 09:10:57;;;;;;;23.42;8.68;;;;;;;;;;5032028;28;20037;-56
2021/11/28 09:13:23;;;;;;;24.23;9.20;;;;;;;;;;5030979;28;20056;-56
2021/11/28 09:15:50;;;;;;;23.38;8.20;;;;;;;;;;5029409;28;20096;-56
2021/11/28 09:18:19;;;;;;;23.00;8.13;;;;;;;;;;5028776;28;20507;-53
2021/11/28 09:20:50;;;;;;;24.88;9.13;;;;;;;;;;5027188;28;20045;-55
2021/11/28 09:26:02;;;;;;;20.88;7.45;;;;;;;;;;5028667;28;20534;-54
2021/11/28 09:28:28;;;;;;;21.17;7.90;;;;;;;;;;5032346;28;20053;-56
2021/11/28 09:30:55;;;;;;;16.95;6.95;;;;;;;;;;5030271;28;20049;-54
2021/11/28 09:33:21;;;;;;;19.63;7.32;;;;;;;;;;5028650;28;20046;-56
2021/11/28 09:35:48;;;;;;;18.05;7.20;;;;;;;;;;5030199;28;20030;-56
2021/11/28 09:38:14;;;;;;;21.15;7.88;;;;;;;;;;5037537;28;20045;-55
2021/11/28 09:40:44;;;;;;;19.85;7.72;;;;;;;;;;5032446;28;20155;-54
2021/11/28 09:43:13;;;;;;;19.13;7.03;;;;;;;;;;5027422;28;20052;-56
2021/11/28 09:45:39;;;;;;;23.42;8.27;;;;;;;;;;5044524;28;20041;-47
2021/11/28 09:48:06;;;;;;;23.98;8.77;;;;;;;;;;5027402;28;20042;-52
2021/11/28 09:50:36;;;;;;;23.10;8.38;;;;;;;;;;5012427;28;20046;-54
2021/11/28 09:53:03;;;;;;;22.52;7.95;;;;;;;;;;5017283;28;20409;-54
2021/11/28 09:55:30;;;;;;;17.77;7.53;;;;;;;;;;5020295;28;20049;-54
2021/11/28 09:57:57;;;;;;;19.20;8.27;;;;;;;;;;5018489;28;20050;-52
2021/11/28 10:00:25;;;;;;;17.45;7.05;;;;;;;;;;5019503;28;20131;-52
2021/11/28 10:02:52;;;;;;;23.45;9.18;;;;;;;;;;5026014;28;20041;-55
2021/11/28 10:05:18;;;;;;;21.98;9.18;;;;;;;;;;5038095;28;20041;-56
2021/11/28 10:07:49;;;;;;;19.10;7.70;;;;;;;;;;5036817;28;20123;-55
2021/11/28 10:10:16;;;;;;;24.52;8.43;;;;;;;;;;5022624;28;20045;-52
2021/11/28 10:12:45;;;;;;;21.08;8.25;;;;;;;;;;5020254;28;20259;-50
2021/11/28 10:15:13;;;;;;;20.13;8.02;;;;;;;;;;5018530;28;20038;-54
2021/11/28 10:17:42;;;;;;;20.05;7.25;;;;;;;;;;5019981;28;20156;-55
2021/11/28 10:20:10;;;;;;;20.38;7.40;;;;;;;;;;5017406;28;20042;-56
2021/11/28 10:22:36;;;;;;;18.85;7.35;;;;;;;;;;5019253;28;20041;-53
2021/11/28 10:25:05;;;;;;;22.55;6.93;;;;;;;;;;5015240;28;20042;-55
2021/11/28 10:27:32;;;;;;;20.42;7.45;;;;;;;;;;5018638;28;20025;-56
2021/11/28 10:29:59;;;;;;;15.20;6.63;;;;;;;;;;5030930;28;20056;-55
2021/11/28 10:32:25;;;;;;;19.88;7.80;;;;;;;;;;5040416;28;20041;-55
2021/11/28 10:34:53;;;;;;;19.17;7.43;;;;;;;;;;5038047;28;20052;-54
2021/11/28 10:37:22;;;;;;;18.02;7.05;;;;;;;;;;5040760;28;20242;-51
2021/11/28 10:39:49;;;;;;;21.52;8.45;;;;;;;;;;5027553;28;20133;-56
2021/11/28 10:42:21;;;;;;;20.67;7.45;;;;;;;;;;5018515;28;20065;-57
2021/11/28 10:45:06;;;;;;;21.80;8.50;;;;;;;;;;5020684;28;20029;-55
2021/11/28 10:47:34;;;;;;;18.10;7.50;;;;;;;;;;5038234;28;20052;-56
2021/11/28 10:50:07;;;;;;;18.75;7.05;;;;;;;;;;5029614;28;20053;-54
2021/11/28 10:52:33;;;;;;;18.75;7.30;;;;;;;;;;5027029;28;20055;-57
2021/11/28 10:55:10;;;;;;;21.67;7.55;;;;;;;;;;5030013;28;20046;-54
2021/11/28 10:57:37;;;;;;;14.65;6.32;;;;;;;;;;5019480;28;20061;-56
2021/11/28 11:00:05;;;;;;;19.95;6.95;;;;;;;;;;5017432;28;20095;-57
2021/11/28 11:02:33;;;;;;;20.23;7.57;;;;;;;;;;5020323;28;20042;-56
2021/11/28 11:05:01;;;;;;;20.67;6.70;;;;;;;;;;5022313;28;20041;-57
2021/11/28 11:07:41;;;;;;;16.10;6.25;;;;;;;;;;5038499;28;20274;-55
2021/11/28 11:10:15;;;;;;;17.17;6.60;;;;;;;;;;5016269;28;20030;-55
2021/11/28 11:12:44;;;;;;;18.38;6.45;;;;;;;;;;5028853;28;20042;-53
2021/11/28 11:15:13;;;;;;;15.05;5.60;;;;;;;;;;5017925;28;20038;-54
2021/11/28 11:17:54;;;;;;;18.15;5.95;;;;;;;;;;5038122;28;20053;-55
2021/11/28 11:20:24;;;;;;;15.95;6.20;;;;;;;;;;5038368;28;20045;-54
2021/11/28 11:22:53;;;;;;;14.75;5.50;;;;;;;;;;5037213;28;20041;-54
2021/11/28 11:25:21;;;;;;;14.90;5.50;;;;;;;;;;5037956;28;20041;-55
2021/11/28 11:27:49;;;;;;;14.25;4.40;;;;;;;;;;5036527;28;20111;-55
2021/11/28 11:30:17;;;;;;;11.75;4.45;;;;;;;;;;5038297;28;20366;-53
2021/11/28 11:32:44;;;;;;;12.07;4.00;;;;;;;;;;5018784;28;20052;-53
2021/11/28 11:35:15;;;;;;;11.10;3.90;;;;;;;;;;5019056;28;20416;-54
2021/11/28 11:37:41;;;;;;;10.48;3.90;;;;;;;;;;5015640;28;20040;-53
2021/11/28 11:40:10;;;;;;;10.05;4.00;;;;;;;;;;5022598;28;20147;-55
2021/11/28 11:42:37;;;;;;;11.38;3.60;;;;;;;;;;5018006;28;20041;-54
2021/11/28 11:45:05;;;;;;;12.88;4.25;;;;;;;;;;5021111;28;20050;-56
2021/11/28 11:47:33;;;;;;;10.32;4.15;;;;;;;;;;5018608;28;20041;-54
2021/11/28 11:49:59;;;;;;;12.30;4.23;;;;;;;;;;5022018;28;20041;-56
2021/11/28 11:52:26;;;;;;;12.70;4.05;;;;;;;;;;5019122;28;20120;-56
2021/11/28 11:54:53;;;;;;;10.60;3.85;;;;;;;;;;5021689;28;20065;-56
2021/11/28 11:57:23;;;;;;;6.30;2.53;;;;;;;;;;5020287;28;20046;-56
2021/11/28 12:00:13;;;;;;;6.65;2.65;;;;;;;;;;5023071;28;20045;-57
2021/11/28 12:02:41;;;;;;;4.85;1.95;;;;;;;;;;5021477;28;20068;-54
2021/11/28 12:05:26;;;;;;;5.30;2.42;;;;;;;;;;5040614;28;20049;-56
2021/11/28 12:07:56;;;;;;;3.22;1.52;;;;;;;;;;5036341;28;20048;-54
2021/11/28 12:10:27;;;;;;;2.22;1.13;;;;;;;;;;5041757;28;20041;-57
2021/11/28 12:12:55;;;;;;;3.80;1.40;;;;;;;;;;5040625;28;20560;-57
2021/11/28 12:15:23;;;;;;;2.83;0.85;;;;;;;;;;5060641;28;20098;-52
2021/11/28 12:17:52;;;;;;;;;;;;;;;;;;5058936;28;20069;-56
2021/11/28 12:20:18;;;;;;;;;;;;;;;;;;5061285;28;19920;-57
2021/11/28 12:22:46;;;;;;;4.03;1.35;;;;;;;;;;5061011;28;19925;-57
2021/11/28 12:25:31;;;;;;;0.80;0.52;;;;;;;;;;5022115;28;20074;-55
2021/11/28 12:28:20;;;;;;;3.08;1.08;;;;;;;;;;5024943;28;20038;-56
2021/11/28 12:30:50;;;;;;;4.95;1.90;;;;;;;;;;5020847;28;20033;-54
2021/11/28 12:33:16;;;;;;;2.78;1.00;;;;;;;;;;5022939;28;20130;-55
2021/11/28 12:35:43;;;;;;;1.38;0.73;;;;;;;;;;5019839;28;20052;-56
2021/11/28 12:38:11;;;;;;;1.90;0.70;;;;;;;;;;5023331;28;20415;-54
2021/11/28 12:40:40;;;;;;;2.35;0.45;;;;;;;;;;5032741;28;20118;-55
2021/11/28 12:43:16;;;;;;;5.38;1.67;;;;;;;;;;5041330;28;20074;-54
2021/11/28 12:45:42;;;;;;;0.77;0.47;;;;;;;;;;5029738;28;20068;-56
2021/11/28 12:48:12;;;;;;;2.03;0.82;;;;;;;;;;5037858;28;20126;-52
2021/11/28 12:50:49;;;;;;;1.63;0.68;;;;;;;;;;5037022;28;20300;-55
2021/11/28 12:53:25;;;;;;;0.95;0.68;;;;;;;;;;5032484;28;20045;-55
2021/11/28 12:56:15;;;;;;;1.90;0.77;;;;;;;;;;5032361;28;20060;-54
2021/11/28 12:58:57;;;;;;;3.22;1.30;;;;;;;;;;5032030;28;20050;-55
2021/11/28 13:01:38;;;;;;;0.95;0.50;;;;;;;;;;5024123;28;20055;-52
2021/11/28 13:04:06;;;;;;;1.40;0.70;;;;;;;;;;5021984;28;20069;-54
2021/11/28 13:06:34;;;;;;;1.85;0.50;;;;;;;;;;5022605;28;20061;-53
2021/11/28 13:09:02;;;;;;;0.32;0.32;;;;;;;;;;5033220;28;20142;-55
2021/11/28 13:11:29;;;;;;;2.20;0.98;;;;;;;;;;5025056;28;20047;-56
2021/11/28 13:13:59;;;;;;;5.78;1.00;;;;;;;;;;5033271;28;20084;-56
2021/11/28 13:16:31;;;;;;;0.95;0.47;;;;;;;;;;5029345;28;20042;-50
2021/11/28 13:19:00;;;;;;;0.77;0.47;;;;;;;;;;5028799;28;20049;-56
2021/11/28 13:21:28;;;;;;;1.35;0.68;;;;;;;;;;5028338;28;20132;-57
2021/11/28 13:23:55;;;;;;;1.55;0.60;;;;;;;;;;5031230;28;20123;-56
2021/11/28 13:26:23;;;;;;;2.30;1.00;;;;;;;;;;5026131;28;20026;-55
2021/11/28 13:28:50;;;;;;;2.45;0.88;;;;;;;;;;5033045;28;20041;-55
2021/11/28 13:31:19;;;;;;;0.85;0.50;;;;;;;;;;5024593;28;20049;-56
2021/11/28 13:33:54;;;;;;;1.23;0.55;;;;;;;;;;5030848;28;20463;-54
2021/11/28 13:36:20;;;;;;;1.08;0.43;;;;;;;;;;5031216;28;20057;-57
2021/11/28 13:38:49;;;;;;;1.50;0.80;;;;;;;;;;5030969;28;20049;-56
2021/11/28 13:41:18;;;;;;;2.20;0.85;;;;;;;;;;5024418;28;20523;-54
2021/11/28 13:43:45;;;;;;;1.13;0.60;;;;;;;;;;5029290;28;20077;-56
2021/11/28 13:46:12;;;;;;;0.60;0.40;;;;;;;;;;5027626;28;20034;-58
2021/11/28 13:48:47;;;;;;;1.23;0.60;;;;;;;;;;5035441;28;20037;-55
2021/11/28 13:51:14;;;;;;;1.45;0.60;;;;;;;;;;5033409;28;20103;-53
2021/11/28 13:53:52;;;;;;;2.15;0.60;;;;;;;;;;5031336;28;20172;-55
2021/11/28 13:56:19;;;;;;;1.50;0.75;;;;;;;;;;5045745;28;20048;-52
2021/11/28 13:59:00;;;;;;;1.42;0.80;;;;;;;;;;5028888;28;20538;-54
2021/11/28 14:01:27;;;;;;;1.02;0.60;;;;;;;;;;5030280;28;20045;-51
2021/11/28 14:03:53;;;;;;;1.55;0.60;;;;;;;;;;5022778;28;20033;-53
2021/11/28 14:06:20;;;;;;;1.30;0.63;;;;;;;;;;5032289;28;20041;-56
2021/11/28 14:08:46;;;;;;;0.95;0.50;;;;;;;;;;5026282;28;20045;-54
2021/11/28 14:11:16;;;;;;;2.25;0.80;;;;;;;;;;5031921;28;20026;-55
2021/11/28 14:13:46;;;;;;;1.65;0.60;;;;;;;;;;5026833;28;20156;-54
2021/11/28 14:16:13;;;;;;;1.30;0.57;;;;;;;;;;5031080;28;20050;-54
2021/11/28 14:18:43;;;;;;;1.52;0.70;;;;;;;;;;5027792;28;20054;-56
2021/11/28 14:21:10;;;;;;;3.20;0.80;;;;;;;;;;5032884;28;20126;-55
2021/11/28 14:23:38;;;;;;;3.30;1.27;;;;;;;;;;5027401;28;20122;-54
2021/11/28 14:26:04;;;;;;;1.80;0.90;;;;;;;;;;5029481;28;20067;-56
2021/11/28 14:28:36;;;;;;;1.80;0.80;;;;;;;;;;5027173;28;20041;-53
2021/11/28 14:31:04;;;;;;;2.00;0.80;;;;;;;;;;5027663;28;20060;-54
2021/11/28 14:33:32;;;;;;;1.90;0.85;;;;;;;;;;5029754;28;20167;-50
2021/11/28 14:36:00;;;;;;;3.45;1.35;;;;;;;;;;5033896;28;20034;-54
2021/11/28 14:38:31;;;;;;;3.55;1.40;;;;;;;;;;5029432;28;20077;-52
2021/11/28 14:40:58;;;;;;;9.65;1.65;;;;;;;;;;5036108;28;20368;-54
2021/11/28 14:43:26;;;;;;;3.30;1.52;;;;;;;;;;5020418;28;20049;-53